Time;durP1;ratioP1;P1;durP2;ratioP2;P2;SDS_P1;SDS_P2;PMS_P1;PMS_P2;Temp;Humidity;BMP_temperature;BMP_pressure;BME280_temperature;BME280_humidity;BME280_pressure;Samples;Min_cycle;Max_cycle;Signal;HPM_P1;HPM_P2
2022/09/22 00:01:05;;;;;;;11.93;5.53;;;4.80;99.90;;;;;;5026731;28;20026;-63
2022/09/22 00:03:40;;;;;;;12.10;5.20;;;4.80;99.90;;;;;;5010301;28;20030;-65
2022/09/22 00:06:17;;;;;;;12.43;5.43;;;4.80;99.90;;;;;;5029343;28;20061;-63
2022/09/22 00:08:47;;;;;;;12.30;5.30;;;4.80;99.90;;;;;;5026410;28;20038;-66
2022/09/22 00:11:16;;;;;;;11.73;5.65;;;4.80;99.90;;;;;;5029027;28;20033;-64
2022/09/22 00:13:54;;;;;;;10.30;5.40;;;4.70;99.90;;;;;;5025820;28;20050;-65
2022/09/22 00:16:24;;;;;;;9.57;5.07;;;4.80;99.90;;;;;;5010461;28;20038;-63
2022/09/22 00:18:50;;;;;;;12.48;5.57;;;4.80;99.90;;;;;;5021713;28;20029;-63
2022/09/22 00:21:17;;;;;;;12.18;5.43;;;4.70;99.90;;;;;;5029069;28;20104;-63
2022/09/22 00:23:45;;;;;;;11.98;5.43;;;4.60;99.90;;;;;;5027693;28;20497;-64
2022/09/22 00:26:14;;;;;;;10.10;5.28;;;4.50;99.90;;;;;;5028586;28;20048;-63
2022/09/22 00:28:41;;;;;;;13.25;6.10;;;4.50;99.90;;;;;;5026484;28;20030;-63
2022/09/22 00:31:10;;;;;;;12.10;5.90;;;4.40;99.90;;;;;;5027797;28;20115;-63
2022/09/22 00:33:37;;;;;;;10.88;5.78;;;4.40;99.90;;;;;;5026120;28;20053;-64
2022/09/22 00:36:03;;;;;;;12.60;6.15;;;4.30;99.90;;;;;;5026963;28;20045;-63
2022/09/22 00:38:31;;;;;;;11.73;5.63;;;4.30;99.90;;;;;;5026766;28;20096;-63
2022/09/22 00:40:57;;;;;;;12.13;5.70;;;4.30;99.90;;;;;;5025244;28;20112;-64
2022/09/22 00:43:26;;;;;;;9.90;4.88;;;4.20;99.90;;;;;;5027677;28;20033;-63
2022/09/22 00:46:18;;;;;;;14.90;5.40;;;4.20;99.90;;;;;;5023312;28;20029;-62
2022/09/22 00:48:50;;;;;;;14.20;5.43;;;4.10;99.90;;;;;;5016215;28;20033;-65
2022/09/22 00:51:19;;;;;;;11.65;6.25;;;4.10;99.90;;;;;;5028177;28;20401;-63
2022/09/22 00:53:46;;;;;;;11.13;5.55;;;4.10;99.90;;;;;;5027855;28;20375;-65
2022/09/22 00:56:16;;;;;;;10.07;5.40;;;4.10;99.90;;;;;;5026100;28;20036;-62
2022/09/22 00:58:49;;;;;;;10.45;5.20;;;4.10;99.90;;;;;;5024740;28;20065;-64
2022/09/22 01:01:15;;;;;;;9.20;4.93;;;4.10;99.90;;;;;;5025773;28;20037;-63
2022/09/22 01:03:42;;;;;;;10.65;5.07;;;4.10;99.90;;;;;;5026987;28;20083;-63
2022/09/22 01:06:12;;;;;;;12.75;5.60;;;4.10;99.90;;;;;;5027945;28;20441;-63
2022/09/22 01:08:39;;;;;;;11.40;5.70;;;4.10;99.90;;;;;;5026298;28;20037;-64
2022/09/22 01:11:06;;;;;;;10.10;5.50;;;4.00;99.90;;;;;;5027118;28;20410;-63
2022/09/22 01:13:41;;;;;;;13.23;5.25;;;3.90;99.90;;;;;;5028275;28;20116;-64
2022/09/22 01:16:17;;;;;;;10.25;5.18;;;3.80;99.90;;;;;;5027417;28;20471;-63
2022/09/22 01:19:22;;;;;;;13.68;5.90;;;3.80;99.90;;;;;;5027818;28;20038;-63
2022/09/22 01:22:08;;;;;;;10.20;5.20;;;3.90;99.90;;;;;;5004642;28;20041;-64
2022/09/22 01:25:11;;;;;;;9.98;4.88;;;3.90;99.90;;;;;;5024374;28;20029;-65
2022/09/22 01:27:51;;;;;;;11.75;5.95;;;3.90;99.90;;;;;;5020682;28;20541;-64
2022/09/22 01:30:19;;;;;;;13.80;5.45;;;4.00;99.90;;;;;;5026009;28;20512;-62
2022/09/22 01:32:57;;;;;;;10.05;5.22;;;4.00;99.90;;;;;;5025284;28;20057;-64
2022/09/22 01:35:49;;;;;;;9.32;5.35;;;4.00;99.90;;;;;;5027101;28;20037;-63
2022/09/22 01:38:21;;;;;;;10.48;4.80;;;4.00;99.90;;;;;;5029945;28;20111;-61
2022/09/22 01:41:10;;;;;;;11.55;5.47;;;3.90;99.90;;;;;;5029454;28;20029;-62
2022/09/22 01:44:00;;;;;;;12.70;5.55;;;3.90;99.90;;;;;;5012467;28;20407;-65
2022/09/22 01:46:32;;;;;;;11.25;5.45;;;3.80;99.90;;;;;;5025848;28;20051;-64
2022/09/22 01:49:01;;;;;;;11.55;5.10;;;3.80;99.90;;;;;;5029340;28;20090;-63
2022/09/22 01:51:33;;;;;;;10.02;5.40;;;3.90;99.90;;;;;;5031846;28;20531;-63
2022/09/22 01:54:06;;;;;;;11.13;5.40;;;3.90;99.90;;;;;;5028499;28;20446;-63
2022/09/22 01:56:35;;;;;;;13.02;5.80;;;3.90;99.90;;;;;;5031545;28;20034;-63
2022/09/22 01:59:05;;;;;;;11.43;5.75;;;3.90;99.90;;;;;;5030226;28;20044;-61
2022/09/22 02:01:38;;;;;;;14.02;5.72;;;3.90;99.90;;;;;;5031250;28;20031;-64
2022/09/22 02:04:26;;;;;;;11.35;5.45;;;3.90;99.90;;;;;;5029722;28;20105;-64
2022/09/22 02:06:58;;;;;;;12.45;5.32;;;3.90;99.90;;;;;;5027758;28;20034;-64
2022/09/22 02:09:28;;;;;;;14.15;5.95;;;3.90;99.90;;;;;;5031324;28;20544;-64
2022/09/22 02:11:54;;;;;;;11.85;5.78;;;3.90;99.90;;;;;;5029360;28;20037;-63
2022/09/22 02:14:20;;;;;;;11.80;6.03;;;3.90;99.90;;;;;;5028220;28;20058;-63
2022/09/22 02:16:46;;;;;;;11.90;5.65;;;3.90;99.90;;;;;;5026810;28;20448;-63
2022/09/22 02:19:35;;;;;;;12.98;5.93;;;3.80;99.90;;;;;;5027247;28;20033;-64
2022/09/22 02:22:01;;;;;;;14.18;5.55;;;3.80;99.90;;;;;;5029084;28;20029;-63
2022/09/22 02:24:42;;;;;;;12.23;5.30;;;3.70;99.90;;;;;;5022914;28;20061;-64
2022/09/22 02:27:24;;;;;;;9.77;5.03;;;3.60;99.90;;;;;;5026868;28;20037;-64
2022/09/22 02:30:10;;;;;;;9.50;5.28;;;3.70;99.90;;;;;;5026729;28;20087;-64
2022/09/22 02:32:40;;;;;;;11.38;5.55;;;3.60;99.90;;;;;;5027851;28;20045;-64
2022/09/22 02:35:07;;;;;;;11.73;5.78;;;3.50;99.90;;;;;;5026536;28;20122;-64
2022/09/22 02:37:54;;;;;;;11.85;5.13;;;3.60;99.90;;;;;;5031830;28;20039;-65
2022/09/22 02:40:27;;;;;;;12.07;5.60;;;3.60;99.90;;;;;;5031783;28;20021;-64
2022/09/22 02:42:59;;;;;;;11.50;5.00;;;3.50;99.90;;;;;;5030395;28;20036;-65
2022/09/22 02:45:39;;;;;;;10.00;5.07;;;3.50;99.90;;;;;;5028210;28;20497;-63
2022/09/22 02:48:12;;;;;;;9.73;5.07;;;3.40;99.90;;;;;;5022255;28;20080;-64
2022/09/22 02:50:38;;;;;;;15.55;5.82;;;3.40;99.90;;;;;;5024932;28;20046;-67
2022/09/22 02:53:13;;;;;;;12.50;5.43;;;3.40;99.90;;;;;;5026650;28;20033;-65
2022/09/22 02:55:40;;;;;;;10.82;5.25;;;3.40;99.90;;;;;;5019430;28;20064;-69
2022/09/22 02:58:05;;;;;;;13.52;6.03;;;3.40;99.90;;;;;;5027891;28;20033;-64
2022/09/22 03:00:31;;;;;;;12.45;5.80;;;3.40;99.90;;;;;;5027465;28;20510;-65
2022/09/22 03:02:58;;;;;;;11.95;6.45;;;3.40;99.90;;;;;;5025634;28;20045;-63
2022/09/22 03:05:24;;;;;;;17.90;7.03;;;3.40;99.90;;;;;;5029654;28;20049;-64
2022/09/22 03:07:49;;;;;;;15.75;5.78;;;3.40;99.90;;;;;;5029410;28;20060;-64
2022/09/22 03:10:15;;;;;;;13.60;6.32;;;3.30;99.90;;;;;;5031022;28;20030;-64
2022/09/22 03:12:42;;;;;;;11.05;5.93;;;3.30;99.90;;;;;;5030916;28;20040;-65
2022/09/22 03:15:12;;;;;;;12.15;5.60;;;3.30;99.90;;;;;;5027750;28;20029;-64
2022/09/22 03:17:40;;;;;;;11.07;5.32;;;3.20;99.90;;;;;;5029467;28;20037;-65
2022/09/22 03:20:09;;;;;;;13.20;5.32;;;3.20;99.90;;;;;;5029872;28;20037;-64
2022/09/22 03:22:35;;;;;;;10.48;4.97;;;3.20;99.90;;;;;;5031019;28;20496;-65
2022/09/22 03:25:01;;;;;;;12.05;5.15;;;3.20;99.90;;;;;;5030259;28;20057;-64
2022/09/22 03:27:27;;;;;;;11.00;5.40;;;3.10;99.90;;;;;;5029726;28;20060;-64
2022/09/22 03:29:53;;;;;;;12.85;5.72;;;3.10;99.90;;;;;;5030000;28;20025;-63
2022/09/22 03:32:20;;;;;;;8.95;4.93;;;3.10;99.90;;;;;;5030837;28;20054;-64
2022/09/22 03:34:47;;;;;;;11.20;5.00;;;3.20;99.90;;;;;;5028206;28;20033;-68
2022/09/22 03:37:13;;;;;;;10.80;5.07;;;3.10;99.90;;;;;;5030901;28;20037;-66
2022/09/22 03:39:39;;;;;;;9.30;4.75;;;3.10;99.90;;;;;;5030903;28;20112;-62
2022/09/22 03:42:05;;;;;;;11.02;4.93;;;3.10;99.90;;;;;;5029832;28;20167;-62
2022/09/22 03:44:31;;;;;;;9.68;5.10;;;3.10;99.90;;;;;;5030928;28;20029;-65
2022/09/22 03:46:56;;;;;;;10.75;5.03;;;3.10;99.90;;;;;;5030112;28;20040;-64
2022/09/22 03:49:22;;;;;;;10.60;5.28;;;3.00;99.90;;;;;;5030557;28;20073;-64
2022/09/22 03:51:48;;;;;;;9.90;5.25;;;2.90;99.90;;;;;;5028763;28;20116;-63
2022/09/22 03:54:13;;;;;;;9.80;5.07;;;2.90;99.90;;;;;;5030374;28;20374;-65
2022/09/22 03:56:39;;;;;;;11.05;4.75;;;3.00;99.90;;;;;;5030427;28;20446;-63
2022/09/22 03:59:04;;;;;;;14.55;5.40;;;3.00;99.90;;;;;;5029861;28;20029;-65
2022/09/22 04:01:30;;;;;;;10.93;5.05;;;2.90;99.90;;;;;;5029633;28;20104;-63
2022/09/22 04:03:56;;;;;;;10.75;5.07;;;2.80;99.90;;;;;;5029570;28;20040;-64
2022/09/22 04:06:22;;;;;;;10.57;4.80;;;2.80;99.90;;;;;;5029130;28;20029;-63
2022/09/22 04:08:48;;;;;;;10.15;4.35;;;2.80;99.90;;;;;;5028541;28;20040;-62
2022/09/22 04:11:14;;;;;;;9.65;5.03;;;2.70;99.90;;;;;;5030113;28;20117;-62
2022/09/22 04:13:39;;;;;;;11.55;5.30;;;2.70;99.90;;;;;;5030174;28;20522;-64
2022/09/22 04:16:05;;;;;;;10.77;5.20;;;2.80;99.90;;;;;;5029232;28;20029;-64
2022/09/22 04:18:31;;;;;;;10.63;5.07;;;2.80;99.90;;;;;;5030041;28;20043;-66
2022/09/22 04:20:57;;;;;;;13.30;5.30;;;2.70;99.90;;;;;;5029471;28;20044;-65
2022/09/22 04:23:23;;;;;;;12.70;4.95;;;2.70;99.90;;;;;;5029283;28;20079;-65
2022/09/22 04:25:49;;;;;;;11.20;5.00;;;2.70;99.90;;;;;;5029014;28;20039;-64
2022/09/22 04:28:15;;;;;;;9.57;4.80;;;2.70;99.90;;;;;;5029562;28;20108;-63
2022/09/22 04:30:42;;;;;;;10.70;5.03;;;2.60;99.90;;;;;;5029457;28;20033;-65
2022/09/22 04:33:08;;;;;;;10.40;5.10;;;2.60;99.90;;;;;;5027070;28;21026;-64
2022/09/22 04:35:34;;;;;;;11.30;5.13;;;2.70;99.90;;;;;;5029779;28;20026;-64
2022/09/22 04:37:59;;;;;;;11.40;5.13;;;2.70;99.90;;;;;;5028079;28;20401;-64
2022/09/22 04:40:25;;;;;;;10.38;4.57;;;2.80;99.90;;;;;;5029458;28;20417;-65
2022/09/22 04:42:51;;;;;;;10.73;4.63;;;2.70;99.90;;;;;;5028924;28;20036;-63
2022/09/22 04:45:17;;;;;;;9.18;4.50;;;2.80;99.90;;;;;;5028247;28;20470;-64
2022/09/22 04:47:51;;;;;;;11.93;4.82;;;2.70;99.90;;;;;;5029931;28;20029;-65
2022/09/22 04:50:18;;;;;;;10.27;4.88;;;2.70;99.90;;;;;;5029467;28;20421;-65
2022/09/22 04:52:50;;;;;;;11.52;4.78;;;2.70;99.90;;;;;;5028586;28;20029;-65
2022/09/22 04:55:16;;;;;;;11.75;5.35;;;2.70;99.90;;;;;;5027518;28;20118;-63
2022/09/22 04:57:47;;;;;;;12.85;5.13;;;2.80;99.90;;;;;;5028257;28;20111;-64
2022/09/22 05:00:13;;;;;;;10.55;4.50;;;2.80;99.90;;;;;;5028692;28;20087;-65
2022/09/22 05:02:38;;;;;;;8.85;4.68;;;2.70;99.90;;;;;;5029322;28;20422;-64
2022/09/22 05:05:05;;;;;;;9.00;4.75;;;2.70;99.90;;;;;;5028832;28;20030;-65
2022/09/22 05:07:31;;;;;;;9.40;5.15;;;2.70;99.90;;;;;;5028239;28;20037;-64
2022/09/22 05:09:56;;;;;;;10.55;4.97;;;2.70;99.90;;;;;;5028512;28;20475;-64
2022/09/22 05:12:22;;;;;;;11.25;5.75;;;2.70;99.90;;;;;;5030575;28;20041;-63
2022/09/22 05:14:47;;;;;;;11.30;5.53;;;2.70;99.90;;;;;;5033226;28;20459;-68
2022/09/22 05:17:14;;;;;;;11.55;5.18;;;2.60;99.90;;;;;;5032789;28;20029;-65
2022/09/22 05:19:40;;;;;;;10.90;4.90;;;2.60;99.90;;;;;;5033418;28;20053;-64
2022/09/22 05:22:05;;;;;;;10.50;5.00;;;2.50;99.90;;;;;;5031375;28;20123;-65
2022/09/22 05:24:31;;;;;;;11.30;4.95;;;2.60;99.90;;;;;;5033358;28;20120;-64
2022/09/22 05:26:57;;;;;;;11.77;5.53;;;2.70;99.90;;;;;;5032414;28;20496;-65
2022/09/22 05:29:23;;;;;;;9.88;5.25;;;2.60;99.90;;;;;;5033177;28;20030;-65
2022/09/22 05:31:49;;;;;;;18.20;7.68;;;2.70;99.90;;;;;;5032696;28;20045;-68
2022/09/22 05:34:15;;;;;;;8.82;4.70;;;2.70;99.90;;;;;;5032997;28;20051;-64
2022/09/22 05:36:41;;;;;;;12.07;5.68;;;2.70;99.90;;;;;;5032148;28;20176;-64
2022/09/22 05:39:07;;;;;;;22.17;8.23;;;2.80;99.90;;;;;;5032088;28;20036;-63
2022/09/22 05:41:32;;;;;;;25.00;9.75;;;2.90;99.90;;;;;;5032344;28;20047;-65
2022/09/22 05:43:58;;;;;;;29.55;11.30;;;2.90;99.90;;;;;;5032050;28;20033;-65
2022/09/22 05:46:24;;;;;;;20.70;9.35;;;3.00;99.90;;;;;;5031622;28;20079;-64
2022/09/22 05:48:49;;;;;;;32.50;11.93;;;3.10;99.90;;;;;;5032554;28;20040;-67
2022/09/22 05:51:15;;;;;;;20.02;8.80;;;3.20;99.90;;;;;;5032396;28;20386;-65
2022/09/22 05:53:40;;;;;;;29.13;11.80;;;3.20;99.90;;;;;;5032748;28;20104;-65
2022/09/22 05:56:06;;;;;;;36.28;12.90;;;3.30;99.90;;;;;;5029872;28;20041;-64
2022/09/22 05:58:32;;;;;;;31.83;11.50;;;3.40;99.90;;;;;;5032726;28;20033;-64
2022/09/22 06:00:57;;;;;;;22.42;9.20;;;3.60;99.90;;;;;;5031791;28;20040;-63
2022/09/22 06:03:23;;;;;;;15.90;7.68;;;3.60;99.90;;;;;;5032646;28;20080;-64
2022/09/22 06:05:49;;;;;;;19.92;8.50;;;3.80;99.90;;;;;;5031261;28;20060;-64
2022/09/22 06:08:15;;;;;;;16.42;7.40;;;3.90;99.90;;;;;;5031643;28;20029;-64
2022/09/22 06:10:43;;;;;;;17.23;6.85;;;3.90;99.90;;;;;;5031770;28;20428;-63
2022/09/22 06:13:10;;;;;;;14.32;5.70;;;3.90;99.90;;;;;;5030724;28;20034;-65
2022/09/22 06:15:36;;;;;;;14.50;6.00;;;3.90;99.90;;;;;;5032690;28;20490;-65
2022/09/22 06:18:05;;;;;;;13.05;5.97;;;3.90;99.90;;;;;;5031410;28;20496;-65
2022/09/22 06:20:32;;;;;;;10.30;5.25;;;4.10;99.90;;;;;;5032361;28;20026;-63
2022/09/22 06:22:58;;;;;;;12.57;5.80;;;4.10;99.90;;;;;;5029826;28;20512;-65
2022/09/22 06:25:26;;;;;;;17.08;6.22;;;4.30;99.90;;;;;;5032174;28;20064;-64
2022/09/22 06:28:06;;;;;;;14.90;6.22;;;4.30;99.90;;;;;;5030894;28;20787;-68
2022/09/22 06:30:34;;;;;;;12.25;5.55;;;4.40;99.90;;;;;;5031880;28;20061;-65
2022/09/22 06:32:59;;;;;;;17.63;6.53;;;4.50;99.90;;;;;;5031225;28;20053;-63
2022/09/22 06:35:31;;;;;;;14.73;6.68;;;4.60;99.90;;;;;;5030716;28;20433;-64
2022/09/22 06:37:57;;;;;;;18.08;6.90;;;4.60;99.90;;;;;;5031124;28;20042;-65
2022/09/22 06:40:25;;;;;;;15.88;6.32;;;4.70;99.90;;;;;;5031942;28;20026;-65
2022/09/22 06:43:06;;;;;;;19.42;7.40;;;4.80;99.90;;;;;;5030770;28;20030;-63
2022/09/22 06:45:32;;;;;;;18.77;7.38;;;4.90;99.90;;;;;;5028871;28;20044;-65
2022/09/22 06:47:59;;;;;;;13.55;6.45;;;5.00;99.90;;;;;;5030925;28;20048;-64
2022/09/22 06:50:29;;;;;;;15.48;6.55;;;5.20;99.90;;;;;;5031599;28;20112;-63
2022/09/22 06:53:03;;;;;;;16.83;6.68;;;5.30;99.90;;;;;;5031500;28;20080;-68
2022/09/22 06:55:30;;;;;;;13.23;6.30;;;5.40;99.90;;;;;;5031762;28;20026;-64
2022/09/22 06:57:57;;;;;;;16.70;7.13;;;5.50;99.90;;;;;;5028070;28;20048;-68
2022/09/22 07:00:29;;;;;;;13.63;7.00;;;5.70;99.90;;;;;;5031483;28;20037;-64
2022/09/22 07:03:07;;;;;;;14.90;6.80;;;5.80;99.90;;;;;;5031079;28;20033;-68
2022/09/22 07:05:35;;;;;;;13.15;7.03;;;6.00;99.90;;;;;;5029260;28;20033;-65
2022/09/22 07:08:01;;;;;;;13.80;7.35;;;6.10;99.90;;;;;;5030533;28;20030;-65
2022/09/22 07:10:27;;;;;;;16.05;7.57;;;6.30;99.90;;;;;;5029972;28;20482;-64
2022/09/22 07:12:53;;;;;;;12.48;6.88;;;6.50;99.90;;;;;;5031249;28;20723;-64
2022/09/22 07:15:19;;;;;;;12.82;6.57;;;6.70;99.90;;;;;;5030624;28;20036;-64
2022/09/22 07:17:45;;;;;;;12.90;6.70;;;7.00;99.90;;;;;;5031110;28;20036;-64
2022/09/22 07:20:11;;;;;;;12.00;6.75;;;7.20;99.90;;;;;;5028679;28;20112;-66
2022/09/22 07:22:38;;;;;;;13.32;6.32;;;7.50;99.90;;;;;;5029281;28;20120;-66
2022/09/22 07:25:06;;;;;;;10.23;5.97;;;7.70;99.90;;;;;;5029883;28;20025;-64
2022/09/22 07:27:32;;;;;;;10.05;5.57;;;8.00;99.90;;;;;;5030953;28;20033;-65
2022/09/22 07:29:57;;;;;;;9.32;5.22;;;8.30;99.90;;;;;;5030519;28;20049;-66
2022/09/22 07:32:23;;;;;;;10.25;5.70;;;8.60;99.90;;;;;;5030694;28;20049;-64
2022/09/22 07:34:51;;;;;;;10.95;5.75;;;8.80;99.90;;;;;;5028888;28;20102;-64
2022/09/22 07:37:17;;;;;;;10.00;5.10;;;9.00;99.90;;;;;;5028231;28;20032;-65
2022/09/22 07:39:44;;;;;;;11.18;5.38;;;9.20;99.90;;;;;;5030634;28;20052;-65
2022/09/22 07:42:10;;;;;;;14.77;5.32;;;9.40;99.90;;;;;;5029944;28;20029;-63
2022/09/22 07:48:34;;;;;;;11.88;5.13;;;9.70;99.90;;;;;;5029835;28;20040;-61
2022/09/22 07:50:06;;;;;;;8.75;4.55;;;9.90;99.90;;;;;;5029236;28;20083;-65
2022/09/22 07:52:32;;;;;;;10.93;5.15;;;10.00;99.90;;;;;;5029607;28;20120;-64
2022/09/22 07:54:58;;;;;;;14.98;5.50;;;10.20;99.90;;;;;;5026942;28;20116;-68
2022/09/22 07:57:24;;;;;;;12.45;5.78;;;10.40;99.90;;;;;;5029121;28;20025;-63
2022/09/22 07:59:50;;;;;;;13.18;5.93;;;10.50;99.90;;;;;;5029355;28;20049;-63
2022/09/22 08:02:15;;;;;;;10.32;5.00;;;10.60;99.90;;;;;;5029262;28;20170;-64
2022/09/22 08:04:41;;;;;;;10.73;5.32;;;10.70;99.90;;;;;;5030337;28;20026;-64
2022/09/22 08:07:07;;;;;;;11.75;5.50;;;10.90;99.90;;;;;;5029443;28;20021;-62
2022/09/22 08:09:32;;;;;;;7.45;4.30;;;11.00;99.90;;;;;;5030159;28;20151;-63
2022/09/22 08:11:59;;;;;;;7.30;3.88;;;11.10;99.90;;;;;;5029127;28;20033;-68
2022/09/22 08:14:25;;;;;;;11.40;4.32;;;11.20;99.90;;;;;;5029514;28;20390;-63
2022/09/22 08:16:52;;;;;;;10.27;3.83;;;11.40;99.90;;;;;;5030092;28;20192;-64
2022/09/22 08:19:19;;;;;;;5.70;3.42;;;11.50;99.90;;;;;;5029277;28;20056;-64
2022/09/22 08:21:46;;;;;;;8.13;3.10;;;11.70;99.90;;;;;;5029802;28;20109;-62
2022/09/22 08:24:14;;;;;;;6.90;2.78;;;11.90;99.90;;;;;;5029125;28;20037;-65
2022/09/22 08:26:43;;;;;;;5.18;2.92;;;12.10;99.90;;;;;;5029570;28;20054;-65
2022/09/22 08:29:09;;;;;;;5.00;2.72;;;12.20;99.90;;;;;;5027630;28;20049;-64
2022/09/22 08:31:35;;;;;;;6.35;2.35;;;12.30;99.90;;;;;;5029408;28;20494;-63
2022/09/22 08:34:05;;;;;;;6.72;2.20;;;12.40;99.90;;;;;;5026396;28;20036;-66
2022/09/22 08:36:31;;;;;;;23.35;3.58;;;12.50;99.90;;;;;;5029196;28;20355;-62
2022/09/22 08:39:01;;;;;;;7.95;2.28;;;12.60;99.90;;;;;;5029735;28;20044;-65
2022/09/22 08:41:27;;;;;;;6.20;2.00;;;12.60;99.90;;;;;;5027464;28;20064;-64
2022/09/22 08:43:58;;;;;;;6.00;1.50;;;12.80;99.90;;;;;;5029375;28;20600;-63
2022/09/22 08:46:34;;;;;;;3.60;1.33;;;12.90;99.90;;;;;;5029227;28;20033;-63
2022/09/22 08:51:59;;;;;;;4.10;1.30;;;13.20;99.90;;;;;;5027801;28;20110;-64
2022/09/22 08:54:30;;;;;;;2.92;1.27;;;13.40;99.90;;;;;;5029021;28;20053;-65
2022/09/22 08:56:56;;;;;;;3.50;1.40;;;13.40;99.90;;;;;;5029455;28;20037;-63
2022/09/22 08:59:28;;;;;;;4.03;1.85;;;13.50;99.90;;;;;;5028770;28;20036;-64
2022/09/22 09:02:31;;;;;;;2.70;1.52;;;13.50;99.90;;;;;;5028789;28;20057;-63
2022/09/22 09:05:38;;;;;;;2.72;1.50;;;13.60;99.90;;;;;;5028907;28;20037;-65
2022/09/22 09:08:18;;;;;;;2.80;1.42;;;13.70;99.90;;;;;;5028918;28;20390;-69
2022/09/22 09:10:44;;;;;;;5.90;1.42;;;13.80;99.90;;;;;;5029497;28;20041;-63
2022/09/22 09:13:50;;;;;;;3.75;1.60;;;13.90;99.90;;;;;;5028671;28;20033;-62
2022/09/22 09:16:31;;;;;;;5.38;1.90;;;14.00;99.90;;;;;;5014703;28;20053;-62
2022/09/22 09:19:01;;;;;;;3.30;1.50;;;14.10;99.90;;;;;;5027995;28;20095;-65
2022/09/22 09:21:31;;;;;;;2.78;1.50;;;14.30;99.90;;;;;;5028905;28;20064;-63
2022/09/22 09:24:03;;;;;;;4.05;1.52;;;14.40;99.90;;;;;;5029425;28;20095;-63
2022/09/22 09:26:29;;;;;;;3.90;1.45;;;14.40;99.90;;;;;;5028819;28;20026;-63
2022/09/22 09:29:02;;;;;;;3.20;1.40;;;14.50;99.90;;;;;;5028822;28;20466;-64
2022/09/22 09:31:42;;;;;;;3.97;1.42;;;14.50;99.90;;;;;;5027747;28;20025;-63
2022/09/22 09:34:18;;;;;;;3.10;1.50;;;14.60;99.90;;;;;;5028226;28;20079;-65
2022/09/22 09:36:51;;;;;;;4.55;1.60;;;14.90;99.90;;;;;;5029121;28;20025;-63
2022/09/22 09:39:36;;;;;;;3.22;1.67;;;15.00;99.90;;;;;;5028363;28;20033;-63
2022/09/22 09:42:19;;;;;;;3.35;1.65;;;15.00;99.90;;;;;;5029109;28;20052;-67
2022/09/22 09:44:52;;;;;;;6.07;1.75;;;14.90;99.90;;;;;;5029198;28;20036;-63
2022/09/22 09:47:50;;;;;;;3.28;1.80;;;14.90;99.90;;;;;;5026473;28;20056;-63
2022/09/22 09:50:16;;;;;;;5.22;2.10;;;14.90;99.90;;;;;;5028229;28;20030;-62
2022/09/22 09:52:42;;;;;;;4.70;1.90;;;14.90;99.90;;;;;;5028194;28;20560;-64
2022/09/22 09:55:16;;;;;;;5.72;1.88;;;15.10;99.90;;;;;;5028217;28;20447;-67
2022/09/22 09:58:02;;;;;;;6.13;1.70;;;15.10;99.90;;;;;;5029113;28;20029;-66
2022/09/22 10:00:31;;;;;;;3.88;1.63;;;15.10;99.90;;;;;;5031904;28;20451;-64
2022/09/22 10:03:24;;;;;;;2.60;1.60;;;15.20;99.90;;;;;;5032569;28;20064;-64
2022/09/22 10:06:03;;;;;;;2.75;1.73;;;15.20;99.90;;;;;;5030779;28;20360;-66
2022/09/22 10:08:35;;;;;;;2.72;1.60;;;15.20;99.90;;;;;;5011996;28;20038;-64
2022/09/22 10:11:01;;;;;;;3.28;1.88;;;15.10;99.90;;;;;;5012772;28;20101;-63
2022/09/22 10:13:30;;;;;;;5.70;1.50;;;15.30;99.90;;;;;;5011961;28;20044;-65
2022/09/22 10:16:06;;;;;;;3.58;1.60;;;15.20;99.90;;;;;;5021338;28;20425;-64
2022/09/22 10:18:39;;;;;;;2.72;1.30;;;15.20;99.90;;;;;;5031700;28;20043;-64
2022/09/22 10:21:22;;;;;;;3.65;1.55;;;15.50;99.90;;;;;;5032182;28;20025;-66
2022/09/22 10:23:49;;;;;;;3.80;1.50;;;15.60;99.90;;;;;;5031812;28;20061;-63
2022/09/22 10:26:32;;;;;;;2.70;1.48;;;15.80;99.90;;;;;;5031515;28;20029;-64
2022/09/22 10:29:18;;;;;;;6.10;1.80;;;15.80;99.00;;;;;;5031697;28;20852;-65
2022/09/22 10:32:05;;;;;;;3.88;1.67;;;15.80;98.50;;;;;;5031340;28;20511;-64
2022/09/22 10:34:36;;;;;;;5.03;1.55;;;15.80;99.60;;;;;;5031521;28;20061;-62
2022/09/22 10:37:09;;;;;;;2.78;1.20;;;15.90;99.20;;;;;;5031975;28;20054;-63
2022/09/22 10:39:46;;;;;;;2.00;1.25;;;16.10;98.30;;;;;;5032071;28;20037;-62
2022/09/22 10:42:34;;;;;;;2.22;1.40;;;16.20;96.60;;;;;;5031222;28;20063;-63
2022/09/22 10:45:09;;;;;;;3.30;1.30;;;16.20;96.50;;;;;;5031063;28;20104;-62
2022/09/22 10:47:53;;;;;;;2.70;1.20;;;16.50;97.60;;;;;;5031323;28;20025;-64
2022/09/22 10:50:51;;;;;;;3.03;1.20;;;16.70;96.40;;;;;;5030931;28;20091;-64
2022/09/22 10:53:40;;;;;;;3.83;1.80;;;16.50;96.20;;;;;;5009928;28;20030;-64
2022/09/22 10:56:13;;;;;;;2.17;1.40;;;16.60;97.50;;;;;;5011902;28;20034;-64
2022/09/22 10:58:38;;;;;;;4.93;1.60;;;16.70;96.30;;;;;;5011923;28;20125;-65
2022/09/22 11:01:29;;;;;;;3.13;1.60;;;16.70;96.60;;;;;;5011850;28;20174;-63
2022/09/22 11:03:58;;;;;;;;;;;16.80;96.50;;;;;;5011799;28;20103;-63
2022/09/22 11:13:04;;;;;;;3.67;1.30;;;17.00;94.80;;;;;;5031232;28;20036;-63
2022/09/22 11:15:41;;;;;;;3.00;1.73;;;17.00;94.90;;;;;;5023327;28;20708;-64
2022/09/22 11:18:28;;;;;;;2.50;1.48;;;17.10;95.30;;;;;;5031257;28;20025;-63
2022/09/22 11:21:22;;;;;;;1.73;1.27;;;17.40;94.30;;;;;;5030265;28;20057;-66
2022/09/22 11:23:50;;;;;;;3.22;1.58;;;17.60;93.30;;;;;;5030415;28;20025;-66
2022/09/22 11:26:44;;;;;;;2.78;1.70;;;17.70;94.20;;;;;;5030113;28;20029;-64
2022/09/22 11:29:21;;;;;;;2.83;1.40;;;17.60;92.40;;;;;;5030882;28;20129;-66
2022/09/22 11:31:55;;;;;;;3.33;1.65;;;17.40;93.10;;;;;;5030968;28;20060;-62
2022/09/22 11:34:56;;;;;;;1.92;1.17;;;17.50;93.30;;;;;;5030225;28;20025;-62
2022/09/22 11:37:40;;;;;;;2.13;1.40;;;18.00;92.30;;;;;;5029134;28;20134;-65
2022/09/22 11:40:18;;;;;;;1.48;0.98;;;18.20;90.90;;;;;;5029184;28;20033;-64
2022/09/22 11:42:58;;;;;;;2.50;1.48;;;18.20;91.10;;;;;;5030130;28;20523;-62
2022/09/22 11:45:46;;;;;;;4.35;1.50;;;18.20;90.60;;;;;;5010029;28;20052;-65
2022/09/22 11:48:17;;;;;;;1.58;1.10;;;18.10;91.30;;;;;;5010520;28;20144;-67
2022/09/22 11:51:19;;;;;;;5.25;1.63;;;18.40;91.30;;;;;;5010837;28;20041;-63
2022/09/22 11:54:00;;;;;;;2.90;1.42;;;18.40;89.40;;;;;;5016712;28;20021;-63
2022/09/22 11:56:36;;;;;;;;;;;18.40;91.80;;;;;;5030094;28;20033;-62
2022/09/22 11:59:09;;;;;;;1.98;1.20;;;18.40;91.20;;;;;;5030349;28;19905;-62
2022/09/22 12:01:37;;;;;;;3.63;1.50;;;18.60;90.70;;;;;;5029554;28;20106;-64
2022/09/22 12:04:23;;;;;;;1.85;1.27;;;18.70;89.80;;;;;;5028875;28;20443;-65
2022/09/22 12:06:53;;;;;;;3.42;1.67;;;19.10;91.30;;;;;;5028748;28;20040;-62
2022/09/22 12:09:38;;;;;;;2.67;1.40;;;19.00;91.60;;;;;;5028943;28;20037;-62
2022/09/22 12:12:05;;;;;;;2.92;1.40;;;18.90;92.60;;;;;;5030091;28;20080;-65
2022/09/22 12:14:31;;;;;;;4.93;1.70;;;19.00;93.00;;;;;;5029348;28;20017;-65
2022/09/22 12:17:07;;;;;;;3.17;1.83;;;19.00;92.30;;;;;;5029683;28;20163;-63
2022/09/22 12:19:50;;;;;;;2.10;1.38;;;18.80;92.30;;;;;;5029277;28;20044;-63
2022/09/22 12:22:56;;;;;;;4.57;1.70;;;18.70;93.70;;;;;;5029073;28;20032;-66
2022/09/22 12:25:45;;;;;;;2.53;1.50;;;18.70;90.10;;;;;;5027617;28;20382;-64
2022/09/22 12:28:16;;;;;;;1.90;1.10;;;18.80;92.30;;;;;;5029873;28;20029;-63
2022/09/22 12:31:30;;;;;;;5.30;1.90;;;19.10;93.20;;;;;;5030052;28;20045;-64
2022/09/22 12:33:57;;;;;;;6.53;1.55;;;19.20;92.10;;;;;;5024770;28;20050;-63
2022/09/22 12:36:38;;;;;;;5.47;1.88;;;19.10;93.10;;;;;;5028434;28;20128;-64
2022/09/22 12:39:10;;;;;;;3.53;1.52;;;19.30;90.90;;;;;;5028976;28;20036;-62
2022/09/22 12:41:47;;;;;;;3.63;1.45;;;19.20;90.00;;;;;;5028956;28;20036;-62
2022/09/22 12:44:19;;;;;;;3.58;1.88;;;19.40;92.50;;;;;;5029720;28;20034;-67
2022/09/22 12:46:46;;;;;;;4.40;1.67;;;19.50;90.40;;;;;;5028190;28;20175;-63
2022/09/22 12:49:20;;;;;;;2.75;1.80;;;19.30;90.90;;;;;;5029737;28;20037;-65
2022/09/22 12:51:45;;;;;;;3.05;1.90;;;18.90;90.70;;;;;;5029595;28;20022;-63
2022/09/22 12:54:26;;;;;;;2.72;1.77;;;18.50;91.00;;;;;;5028904;28;20028;-63
2022/09/22 12:56:58;;;;;;;2.80;1.48;;;18.30;89.40;;;;;;5028171;28;20040;-63
2022/09/22 12:59:36;;;;;;;2.47;1.70;;;18.40;92.20;;;;;;5027862;28;20108;-63
2022/09/22 13:02:17;;;;;;;3.47;1.80;;;18.50;91.00;;;;;;5029500;28;20069;-63
2022/09/22 13:04:48;;;;;;;;;;;18.50;91.30;;;;;;5029989;28;20108;-64
2022/09/22 13:07:39;;;;;;;3.03;1.75;;;18.20;90.80;;;;;;5029475;28;19909;-64
2022/09/22 13:10:23;;;;;;;3.17;1.65;;;17.90;91.80;;;;;;5020490;28;20045;-64
2022/09/22 13:15:49;;;;;;;4.65;1.80;;;18.00;91.90;;;;;;5024087;28;20037;-62
2022/09/22 13:18:28;;;;;;;4.22;1.60;;;17.70;92.50;;;;;;5027525;28;20060;-69
2022/09/22 13:20:55;;;;;;;3.15;1.73;;;17.50;91.70;;;;;;5025742;28;20026;-64
2022/09/22 13:23:21;;;;;;;2.83;1.63;;;17.70;91.40;;;;;;5023044;28;20052;-64
2022/09/22 13:25:48;;;;;;;3.25;1.65;;;17.60;90.40;;;;;;5025631;28;20042;-67
2022/09/22 13:28:22;;;;;;;3.25;1.67;;;17.70;91.40;;;;;;5028064;28;20021;-66